createdAt,value
2022-12-14T00:02:38.246Z,22.73
2022-12-14T00:05:24.734Z,20.45
2022-12-14T00:08:23.221Z,22.35
2022-12-14T00:11:10.530Z,22.05
2022-12-14T00:13:59.884Z,22.88
2022-12-14T00:16:45.714Z,22.33
2022-12-14T00:19:31.478Z,23.73
2022-12-14T00:22:20.477Z,20.65
2022-12-14T00:25:07.107Z,22.08
2022-12-14T00:27:54.622Z,21.15
2022-12-14T00:30:40.729Z,21.42
2022-12-14T00:33:26.640Z,21.52
2022-12-14T00:36:13.410Z,23.08
2022-12-14T00:38:59.541Z,22.00
2022-12-14T00:41:45.620Z,26.83
2022-12-14T00:44:31.542Z,25.83
2022-12-14T00:47:17.430Z,24.70
2022-12-14T00:50:03.757Z,26.70
2022-12-14T00:52:49.854Z,26.00
2022-12-14T00:55:40.699Z,27.23
2022-12-14T00:58:27.803Z,25.15
2022-12-14T01:01:17.354Z,24.02
2022-12-14T01:04:19.489Z,23.80
2022-12-14T01:07:06.715Z,23.58
2022-12-14T01:09:52.998Z,22.60
2022-12-14T01:12:39.794Z,22.00
2022-12-14T01:15:25.983Z,23.27
2022-12-14T01:18:12.020Z,23.88
2022-12-14T01:21:27.124Z,21.65
2022-12-14T01:26:59.376Z,20.63
2022-12-14T01:29:45.290Z,21.67
2022-12-14T01:32:31.448Z,20.80
2022-12-14T01:35:17.377Z,19.92
2022-12-14T01:38:03.886Z,19.70
2022-12-14T01:40:49.931Z,20.90
2022-12-14T01:43:47.184Z,21.38
2022-12-14T01:46:38.612Z,20.70
2022-12-14T01:50:04.974Z,19.80
2022-12-14T01:52:57.408Z,19.95
2022-12-14T01:55:54.480Z,20.08
2022-12-14T01:58:40.458Z,20.67
2022-12-14T02:01:26.295Z,18.98
2022-12-14T02:04:14.830Z,21.95
2022-12-14T02:07:02.253Z,20.83
2022-12-14T02:09:49.051Z,20.10
2022-12-14T02:12:41.350Z,21.10
2022-12-14T02:15:27.851Z,21.13
2022-12-14T02:18:22.064Z,21.58
2022-12-14T02:21:39.632Z,20.67
2022-12-14T02:24:53.305Z,21.08
2022-12-14T02:27:58.610Z,20.08
2022-12-14T02:31:00.913Z,21.30
2022-12-14T02:33:57.118Z,21.15
2022-12-14T02:36:57.912Z,22.08
2022-12-14T02:40:00.977Z,21.60
2022-12-14T02:43:30.723Z,22.05
2022-12-14T02:46:32.106Z,21.80
2022-12-14T02:49:49.690Z,21.88
2022-12-14T02:53:00.905Z,22.38
2022-12-14T02:55:56.486Z,21.95
2022-12-14T02:58:50.346Z,20.60
2022-12-14T03:01:39.061Z,20.73
2022-12-14T03:04:25.413Z,20.50
2022-12-14T03:07:36.664Z,21.42
2022-12-14T03:10:32.046Z,22.65
2022-12-14T03:13:27.449Z,21.30
2022-12-14T03:16:17.164Z,20.83
2022-12-14T03:19:11.350Z,19.17
2022-12-14T03:22:06.041Z,20.95
2022-12-14T03:27:48.737Z,19.55
2022-12-14T03:30:59.339Z,20.93
2022-12-14T03:33:48.542Z,19.58
2022-12-14T03:36:56.782Z,18.63
2022-12-14T03:39:44.649Z,19.52
2022-12-14T03:42:38.870Z,20.52
2022-12-14T03:45:35.742Z,20.15
2022-12-14T03:48:24.925Z,20.05
2022-12-14T03:51:25.923Z,21.15
2022-12-14T03:54:16.817Z,21.10
2022-12-14T03:57:09.340Z,19.95
2022-12-14T04:00:06.893Z,19.48
2022-12-14T04:03:08.340Z,19.65
2022-12-14T04:06:09.461Z,20.40
2022-12-14T04:09:09.095Z,18.38
2022-12-14T04:12:29.515Z,20.35
2022-12-14T04:15:50.666Z,18.55
2022-12-14T04:19:00.032Z,19.00
2022-12-14T04:21:55.445Z,19.20
2022-12-14T04:25:38.227Z,19.70
2022-12-14T04:28:47.704Z,19.20
2022-12-14T04:31:37.761Z,19.80
2022-12-14T04:34:27.937Z,19.60
2022-12-14T04:37:18.495Z,18.75
2022-12-14T04:40:12.499Z,18.25
2022-12-14T04:43:13.671Z,20.23
2022-12-14T04:46:06.412Z,19.17
2022-12-14T04:49:23.841Z,17.95
2022-12-14T04:52:33.895Z,18.85
2022-12-14T04:55:41.967Z,18.50
2022-12-14T04:58:29.977Z,16.92
2022-12-14T05:01:42.878Z,17.13
2022-12-14T05:05:00.102Z,17.23
2022-12-14T05:08:07.621Z,17.58
2022-12-14T05:11:51.519Z,16.15
2022-12-14T05:14:45.824Z,15.73
2022-12-14T05:17:38.037Z,16.17
2022-12-14T05:20:24.491Z,16.95
2022-12-14T05:23:10.450Z,16.42
2022-12-14T05:25:56.306Z,14.45
2022-12-14T05:28:45.930Z,17.52
2022-12-14T05:31:36.195Z,11.80
2022-12-14T05:34:22.530Z,15.98
2022-12-14T05:37:11.630Z,15.95
2022-12-14T05:40:00.792Z,15.77
2022-12-14T05:42:52.348Z,17.20
2022-12-14T05:45:41.292Z,16.30
2022-12-14T05:48:27.601Z,16.70
2022-12-14T05:51:14.372Z,16.15
2022-12-14T05:54:00.523Z,14.95
2022-12-14T05:56:46.405Z,15.15
2022-12-14T05:59:32.763Z,16.15
2022-12-14T06:02:18.775Z,15.50
2022-12-14T06:05:05.661Z,14.82
2022-12-14T06:07:51.481Z,17.25
2022-12-14T06:10:37.568Z,15.05
2022-12-14T06:13:24.013Z,14.80
2022-12-14T06:16:22.738Z,14.65
2022-12-14T06:19:12.936Z,15.82
2022-12-14T06:21:59.443Z,16.70
2022-12-14T06:24:45.470Z,17.23
2022-12-14T06:27:31.823Z,17.08
2022-12-14T06:30:17.837Z,17.45
2022-12-14T06:33:04.064Z,16.15
2022-12-14T06:35:50.180Z,16.33
2022-12-14T06:38:36.119Z,18.02
2022-12-14T06:41:23.958Z,16.42
2022-12-14T06:44:13.035Z,16.45
2022-12-14T06:46:59.539Z,16.77
2022-12-14T06:49:45.696Z,15.93
2022-12-14T06:52:35.085Z,16.70
2022-12-14T06:55:21.390Z,16.73
2022-12-14T06:58:11.661Z,16.83
2022-12-14T07:01:02.149Z,16.33
2022-12-14T07:03:50.880Z,17.13
2022-12-14T07:06:40.426Z,17.48
2022-12-14T07:09:26.682Z,19.05
2022-12-14T07:12:13.335Z,17.33
2022-12-14T07:14:59.321Z,19.17
2022-12-14T07:17:45.195Z,20.65
2022-12-14T07:20:31.413Z,19.30
2022-12-14T07:23:17.373Z,23.30
2022-12-14T07:26:09.143Z,19.75
2022-12-14T07:28:55.406Z,19.35
2022-12-14T07:31:41.468Z,19.48
2022-12-14T07:34:30.355Z,19.60
2022-12-14T07:37:16.437Z,20.73
2022-12-14T07:40:04.497Z,21.55
2022-12-14T07:42:50.976Z,20.67
2022-12-14T07:45:38.171Z,22.10
2022-12-14T07:48:24.013Z,21.98
2022-12-14T07:51:12.198Z,20.70
2022-12-14T07:54:00.005Z,20.73
2022-12-14T07:56:46.340Z,21.00
2022-12-14T07:59:32.453Z,22.73
2022-12-14T08:02:18.352Z,21.48
2022-12-14T08:05:10.587Z,21.15
2022-12-14T08:07:58.669Z,22.65
2022-12-14T08:10:48.715Z,20.55
2022-12-14T08:13:35.382Z,20.60
2022-12-14T08:16:22.314Z,22.52
2022-12-14T08:19:10.301Z,22.73
2022-12-14T08:21:56.465Z,19.60
2022-12-14T08:24:42.334Z,22.35
2022-12-14T08:27:35.444Z,23.27
2022-12-14T08:30:21.517Z,22.23
2022-12-14T08:33:07.675Z,21.77
2022-12-14T08:35:56.045Z,21.92
2022-12-14T08:38:42.363Z,21.85
2022-12-14T08:41:29.040Z,21.80
2022-12-14T08:44:17.182Z,21.75
2022-12-14T08:47:03.572Z,23.50
2022-12-14T08:49:49.676Z,22.65
2022-12-14T08:52:35.679Z,20.80
2022-12-14T08:55:28.247Z,22.00
2022-12-14T08:58:16.095Z,20.77
2022-12-14T09:01:07.516Z,21.67
2022-12-14T09:03:53.604Z,22.55
2022-12-14T09:06:39.954Z,19.92
2022-12-14T09:09:26.178Z,21.52
2022-12-14T09:12:12.051Z,23.05
2022-12-14T09:14:58.190Z,22.25
2022-12-14T09:17:44.246Z,21.95
2022-12-14T09:20:30.142Z,21.83
2022-12-14T09:23:15.944Z,21.20
2022-12-14T09:26:10.350Z,20.48
2022-12-14T09:28:58.061Z,19.45
2022-12-14T09:31:45.605Z,19.23
2022-12-14T09:34:31.951Z,19.10
2022-12-14T09:37:17.954Z,20.00
2022-12-14T09:40:05.221Z,22.20
2022-12-14T09:42:59.494Z,20.25
2022-12-14T09:45:50.615Z,16.92
2022-12-14T09:48:37.145Z,17.10
2022-12-14T09:51:29.902Z,16.35
2022-12-14T09:54:22.169Z,15.82
2022-12-14T09:57:14.018Z,17.95
2022-12-14T10:00:00.708Z,13.60
2022-12-14T10:03:07.629Z,16.85
2022-12-14T10:05:56.562Z,16.00
2022-12-14T10:08:54.525Z,14.68
2022-12-14T10:12:02.136Z,14.85
2022-12-14T10:15:03.398Z,14.88
2022-12-14T10:18:05.320Z,14.45
2022-12-14T10:20:58.049Z,14.10
2022-12-14T10:24:04.036Z,15.93
2022-12-14T10:26:55.712Z,16.02
2022-12-14T10:29:52.111Z,14.95
2022-12-14T10:32:40.033Z,15.43
2022-12-14T10:35:52.340Z,14.48
2022-12-14T10:39:00.077Z,15.77
2022-12-14T10:42:11.448Z,15.93
2022-12-14T10:45:38.955Z,15.18
2022-12-14T10:48:37.302Z,16.33
2022-12-14T10:51:38.029Z,18.13
2022-12-14T10:54:49.609Z,13.73
2022-12-14T10:57:35.865Z,14.57
2022-12-14T11:00:23.398Z,15.65
2022-12-14T11:03:15.597Z,15.32
2022-12-14T11:06:14.374Z,16.73
2022-12-14T11:09:00.618Z,15.57
2022-12-14T11:11:47.070Z,13.50
2022-12-14T11:14:33.762Z,13.02
2022-12-14T11:17:41.438Z,13.75
2022-12-14T11:20:28.174Z,12.05
2022-12-14T11:23:33.852Z,13.18
2022-12-14T11:26:27.947Z,12.93
2022-12-14T11:29:27.531Z,13.23
2022-12-14T11:32:24.178Z,12.23
2022-12-14T11:35:17.501Z,14.82
2022-12-14T11:38:04.345Z,14.75
2022-12-14T11:40:50.920Z,12.00
2022-12-14T11:43:40.311Z,14.38
2022-12-14T11:46:58.111Z,13.63
2022-12-14T11:49:54.489Z,13.23
2022-12-14T11:52:43.690Z,12.77
2022-12-14T11:55:29.940Z,13.60
2022-12-14T11:58:21.859Z,14.05
2022-12-14T12:01:24.191Z,12.10
2022-12-14T12:04:15.493Z,12.50
2022-12-14T12:07:13.484Z,12.68
2022-12-14T12:10:14.509Z,12.10
2022-12-14T12:13:03.811Z,12.02
2022-12-14T12:15:56.960Z,12.50
2022-12-14T12:18:47.008Z,13.55
2022-12-14T12:21:40.054Z,11.73
2022-12-14T12:24:38.796Z,11.73
2022-12-14T12:27:33.342Z,12.73
2022-12-14T12:30:28.388Z,11.98
2022-12-14T12:33:41.797Z,12.20
2022-12-14T12:36:30.381Z,11.65
2022-12-14T12:39:21.614Z,12.23
2022-12-14T12:42:45.755Z,10.48
2022-12-14T12:45:36.729Z,12.27
2022-12-14T12:48:46.736Z,12.90
2022-12-14T12:52:00.993Z,12.13
2022-12-14T12:54:58.239Z,11.02
2022-12-14T12:57:51.011Z,11.82
2022-12-14T13:00:40.190Z,12.73
2022-12-14T13:03:45.304Z,11.07
2022-12-14T13:06:33.206Z,11.88
2022-12-14T13:09:33.823Z,13.50
2022-12-14T13:12:30.433Z,11.52
2022-12-14T13:15:20.709Z,12.77
2022-12-14T13:18:49.202Z,12.95
2022-12-14T13:21:35.111Z,13.15
2022-12-14T13:24:22.639Z,11.88
2022-12-14T13:27:30.735Z,13.85
2022-12-14T13:30:19.446Z,13.40
2022-12-14T13:33:51.024Z,13.02
2022-12-14T13:37:08.046Z,11.93
2022-12-14T13:40:13.599Z,12.77
2022-12-14T13:43:30.299Z,14.23
2022-12-14T13:46:26.462Z,13.52
2022-12-14T13:49:21.833Z,12.65
2022-12-14T13:52:19.932Z,16.63
2022-12-14T13:55:45.138Z,11.40
2022-12-14T13:58:48.581Z,12.77
2022-12-14T14:01:46.669Z,14.25
2022-12-14T14:04:35.713Z,14.15
2022-12-14T14:07:24.446Z,13.77
2022-12-14T14:10:28.523Z,13.43
2022-12-14T14:13:30.058Z,13.90
2022-12-14T14:16:41.834Z,13.85
2022-12-14T14:19:35.397Z,13.48
2022-12-14T14:22:27.601Z,13.57
2022-12-14T14:25:40.745Z,14.35
2022-12-14T14:28:30.468Z,14.77
2022-12-14T14:31:17.155Z,16.23
2022-12-14T14:34:05.145Z,13.95
2022-12-14T14:36:51.843Z,14.65
2022-12-14T14:39:56.565Z,15.18
2022-12-14T14:42:56.552Z,15.63
2022-12-14T14:45:49.885Z,14.63
2022-12-14T14:48:43.958Z,15.20
2022-12-14T14:51:34.461Z,17.05
2022-12-14T14:57:54.507Z,15.63
2022-12-14T15:01:20.052Z,15.00
2022-12-14T15:04:27.845Z,15.05
2022-12-14T15:07:19.062Z,15.27
2022-12-14T15:10:35.665Z,14.88
2022-12-14T15:13:30.780Z,16.02
2022-12-14T15:16:22.810Z,14.93
2022-12-14T15:19:26.447Z,14.48
2022-12-14T15:22:20.680Z,13.90
2022-12-14T15:28:00.448Z,14.18
2022-12-14T15:30:47.626Z,13.65
2022-12-14T15:33:36.875Z,12.55
2022-12-14T15:36:28.768Z,12.68
2022-12-14T15:39:44.133Z,12.57
2022-12-14T15:42:30.625Z,13.45
2022-12-14T15:45:23.532Z,14.18
2022-12-14T15:48:14.488Z,16.20
2022-12-14T15:51:07.603Z,13.27
2022-12-14T15:53:54.647Z,13.27
2022-12-14T15:56:47.062Z,14.52
2022-12-14T15:59:35.981Z,14.48
2022-12-14T16:02:28.138Z,15.77
2022-12-14T16:05:18.826Z,12.98
2022-12-14T16:08:08.464Z,17.45
2022-12-14T16:10:57.121Z,15.63
2022-12-14T16:13:48.951Z,15.52
2022-12-14T16:16:35.314Z,14.80
2022-12-14T16:19:28.858Z,13.48
2022-12-14T16:25:05.995Z,15.88
2022-12-14T16:27:53.585Z,17.75
2022-12-14T16:31:00.627Z,14.00
2022-12-14T16:34:02.245Z,15.52
2022-12-14T16:37:22.623Z,15.52
2022-12-14T16:39:55.493Z,15.57
2022-12-14T16:42:44.487Z,17.40
2022-12-14T16:45:43.165Z,15.18
2022-12-14T16:48:31.615Z,14.98
2022-12-14T16:51:44.335Z,16.08
2022-12-14T16:54:33.080Z,15.48
2022-12-14T16:57:24.314Z,15.27
2022-12-14T17:00:27.365Z,16.02
2022-12-14T17:03:25.706Z,14.63
2022-12-14T17:06:25.502Z,15.85
2022-12-14T17:09:20.265Z,16.80
2022-12-14T17:12:13.631Z,16.60
2022-12-14T17:15:00.008Z,16.23
2022-12-14T17:17:49.351Z,16.73
2022-12-14T17:20:37.007Z,15.82
2022-12-14T17:23:23.325Z,14.07
2022-12-14T17:26:25.103Z,18.05
2022-12-14T17:29:23.157Z,15.77
2022-12-14T17:32:13.198Z,18.77
2022-12-14T17:34:59.936Z,16.33
2022-12-14T17:37:46.842Z,16.35
2022-12-14T17:40:35.431Z,18.30
2022-12-14T17:43:26.099Z,17.73
2022-12-14T17:46:14.116Z,14.07
2022-12-14T17:49:05.994Z,15.48
2022-12-14T17:51:52.604Z,14.65
2022-12-14T17:54:38.577Z,15.50
2022-12-14T17:57:26.373Z,14.32
2022-12-14T18:00:52.689Z,14.10
2022-12-14T18:03:39.452Z,14.90
2022-12-14T18:06:25.982Z,14.23
2022-12-14T18:09:12.421Z,13.43
2022-12-14T18:12:22.099Z,12.52
2022-12-14T18:15:22.246Z,14.63
2022-12-14T18:18:09.122Z,13.27
2022-12-14T18:21:02.798Z,12.38
2022-12-14T18:23:50.419Z,14.00
2022-12-14T18:26:36.257Z,16.52
2022-12-14T18:29:22.232Z,14.00
2022-12-14T18:32:13.816Z,16.95
2022-12-14T18:34:59.760Z,13.77
2022-12-14T18:37:49.477Z,15.30
2022-12-14T18:40:36.783Z,14.57
2022-12-14T18:43:25.405Z,14.10
2022-12-14T18:46:11.793Z,13.90
2022-12-14T18:48:59.115Z,14.27
2022-12-14T18:51:45.292Z,15.07
2022-12-14T18:54:31.701Z,14.93
2022-12-14T18:57:17.958Z,14.93
2022-12-14T19:00:04.559Z,14.15
2022-12-14T19:02:51.835Z,16.45
2022-12-14T19:05:37.959Z,14.25
2022-12-14T19:08:23.992Z,14.52
2022-12-14T19:11:17.494Z,15.02
2022-12-14T19:14:03.645Z,13.90
2022-12-14T19:16:49.414Z,13.95
2022-12-14T19:19:42.541Z,13.43
2022-12-14T19:22:30.244Z,13.05
2022-12-14T19:25:16.908Z,14.52
2022-12-14T19:31:11.205Z,14.90
2022-12-14T19:33:57.279Z,13.40
2022-12-14T19:36:43.072Z,14.15
2022-12-14T19:39:28.999Z,14.02
2022-12-14T19:42:15.110Z,14.27
2022-12-14T19:45:01.009Z,11.23
2022-12-14T19:47:51.217Z,11.65
2022-12-14T19:50:37.228Z,10.18
2022-12-14T19:53:24.226Z,11.75
2022-12-14T19:56:15.947Z,11.35
2022-12-14T19:59:03.641Z,10.07
2022-12-14T20:01:49.601Z,11.85
2022-12-14T20:04:36.227Z,10.20
2022-12-14T20:07:22.441Z,9.23
2022-12-14T20:10:08.834Z,9.75
2022-12-14T20:12:55.056Z,9.00
2022-12-14T20:15:47.331Z,9.48
2022-12-14T20:18:33.879Z,10.68
2022-12-14T20:21:22.524Z,9.63
2022-12-14T20:24:10.366Z,9.57
2022-12-14T20:26:56.534Z,9.15
2022-12-14T20:29:43.092Z,11.05
2022-12-14T20:32:29.818Z,13.85
2022-12-14T20:35:18.611Z,10.30
2022-12-14T20:38:04.733Z,10.75
2022-12-14T20:40:50.574Z,9.98
2022-12-14T20:43:37.967Z,12.05
2022-12-14T20:46:36.239Z,11.05
2022-12-14T20:49:29.361Z,9.63
2022-12-14T20:52:15.621Z,9.80
2022-12-14T20:55:01.593Z,14.10
2022-12-14T20:57:47.630Z,11.48
2022-12-14T21:00:34.418Z,12.90
2022-12-14T21:03:20.417Z,11.25
2022-12-14T21:06:07.387Z,10.65
2022-12-14T21:09:04.811Z,8.85
2022-12-14T21:12:10.006Z,9.82
2022-12-14T21:14:59.495Z,9.90
2022-12-14T21:17:45.717Z,10.02
2022-12-14T21:20:31.592Z,8.55
2022-12-14T21:23:20.312Z,7.95
2022-12-14T21:26:06.412Z,9.13
2022-12-14T21:28:53.510Z,8.80
2022-12-14T21:31:42.578Z,7.43
2022-12-14T21:34:28.850Z,6.55
2022-12-14T21:37:15.649Z,8.02
2022-12-14T21:40:03.716Z,8.77
2022-12-14T21:42:56.360Z,8.60
2022-12-14T21:45:42.582Z,8.48
2022-12-14T21:48:29.112Z,8.10
2022-12-14T21:51:17.439Z,6.95
2022-12-14T21:54:04.130Z,8.82
2022-12-14T21:57:09.137Z,11.80
2022-12-14T21:59:55.849Z,9.48
2022-12-14T22:02:44.168Z,8.55
2022-12-14T22:05:30.017Z,8.48
2022-12-14T22:08:16.068Z,8.77
2022-12-14T22:11:05.656Z,8.45
2022-12-14T22:13:51.609Z,9.13
2022-12-14T22:16:37.822Z,8.10
2022-12-14T22:19:25.180Z,8.18
2022-12-14T22:22:15.334Z,7.45
2022-12-14T22:25:01.700Z,7.97
2022-12-14T22:27:50.107Z,8.90
2022-12-14T22:30:36.589Z,8.95
2022-12-14T22:33:22.813Z,9.32
2022-12-14T22:36:09.034Z,7.82
2022-12-14T22:38:59.063Z,7.88
2022-12-14T22:41:45.737Z,8.27
2022-12-14T22:44:31.991Z,7.35
2022-12-14T22:47:18.574Z,8.52
2022-12-14T22:50:04.825Z,7.55
2022-12-14T22:52:50.742Z,8.13
2022-12-14T22:55:38.442Z,9.57
2022-12-14T22:58:26.508Z,8.88
2022-12-14T23:01:13.943Z,9.75
2022-12-14T23:04:00.888Z,8.63
2022-12-14T23:06:47.341Z,8.30
2022-12-14T23:09:51.836Z,7.47
2022-12-14T23:12:56.229Z,7.72
2022-12-14T23:16:00.687Z,7.43
2022-12-14T23:19:04.915Z,7.47
2022-12-14T23:22:10.177Z,8.95
2022-12-14T23:25:14.732Z,7.45
2022-12-14T23:28:20.041Z,6.07
2022-12-14T23:31:24.969Z,7.68
2022-12-14T23:34:29.914Z,7.20
2022-12-14T23:37:34.432Z,6.80
2022-12-14T23:40:45.581Z,7.68
2022-12-14T23:44:28.202Z,7.50
2022-12-14T23:47:34.202Z,8.30
2022-12-14T23:51:14.224Z,7.28
2022-12-14T23:54:21.237Z,7.93
